sensor_id;sensor_type;location;lat;lon;timestamp;pressure;altitude;pressure_sealevel;temperature;humidity
31357;BME280;60001;48.404;11.738;2024-03-07T00:00:43;96624.91;;;6.32;90.15
31357;BME280;60001;48.404;11.738;2024-03-07T00:02:14;96622.66;;;6.36;89.75
31357;BME280;60001;48.404;11.738;2024-03-07T00:03:47;96622.94;;;6.27;89.76
31357;BME280;60001;48.404;11.738;2024-03-07T00:05:20;96617.09;;;6.25;89.65
31357;BME280;60001;48.404;11.738;2024-03-07T00:06:52;96587.66;;;6.05;89.73
31357;BME280;60001;48.404;11.738;2024-03-07T00:08:24;96617.81;;;6.32;89.71
31357;BME280;60001;48.404;11.738;2024-03-07T00:09:56;96617.25;;;6.30;89.09
31357;BME280;60001;48.404;11.738;2024-03-07T00:11:26;96613.03;;;6.29;88.38
31357;BME280;60001;48.404;11.738;2024-03-07T00:12:58;96618.91;;;6.25;88.10
31357;BME280;60001;48.404;11.738;2024-03-07T00:14:31;96619.50;;;6.27;88.44
31357;BME280;60001;48.404;11.738;2024-03-07T00:16:06;96616.91;;;6.27;88.11
31357;BME280;60001;48.404;11.738;2024-03-07T00:17:37;96618.97;;;6.18;87.71
31357;BME280;60001;48.404;11.738;2024-03-07T00:19:09;96619.84;;;6.12;88.03
31357;BME280;60001;48.404;11.738;2024-03-07T00:20:40;96628.09;;;6.16;88.55
31357;BME280;60001;48.404;11.738;2024-03-07T00:22:12;96621.50;;;6.07;88.60
31357;BME280;60001;48.404;11.738;2024-03-07T00:23:45;96624.19;;;6.00;89.06
31357;BME280;60001;48.404;11.738;2024-03-07T00:25:16;96631.81;;;6.01;88.77
31357;BME280;60001;48.404;11.738;2024-03-07T00:26:50;96624.72;;;6.09;88.21
31357;BME280;60001;48.404;11.738;2024-03-07T00:28:22;96621.13;;;6.03;88.07
31357;BME280;60001;48.404;11.738;2024-03-07T00:29:53;96618.28;;;6.04;88.05
31357;BME280;60001;48.404;11.738;2024-03-07T00:31:25;96617.06;;;6.07;87.51
31357;BME280;60001;48.404;11.738;2024-03-07T00:32:57;96621.72;;;6.05;87.47
31357;BME280;60001;48.404;11.738;2024-03-07T00:34:29;96622.09;;;6.09;87.46
31357;BME280;60001;48.404;11.738;2024-03-07T00:36:00;96616.63;;;6.10;86.90
31357;BME280;60001;48.404;11.738;2024-03-07T00:37:34;96620.06;;;6.11;85.38
31357;BME280;60001;48.404;11.738;2024-03-07T00:39:07;96623.47;;;6.11;85.87
31357;BME280;60001;48.404;11.738;2024-03-07T00:40:42;96619.63;;;6.14;85.98
31357;BME280;60001;48.404;11.738;2024-03-07T00:42:13;96619.84;;;6.12;85.88
31357;BME280;60001;48.404;11.738;2024-03-07T00:43:47;96621.47;;;6.13;86.44
31357;BME280;60001;48.404;11.738;2024-03-07T00:45:18;96616.50;;;6.05;86.69
31357;BME280;60001;48.404;11.738;2024-03-07T00:46:49;96604.66;;;5.96;86.38
31357;BME280;60001;48.404;11.738;2024-03-07T00:48:20;96579.44;;;5.70;86.21
31357;BME280;60001;48.404;11.738;2024-03-07T00:49:55;96623.16;;;6.01;86.75
31357;BME280;60001;48.404;11.738;2024-03-07T00:51:26;96631.25;;;5.99;87.29
31357;BME280;60001;48.404;11.738;2024-03-07T00:52:58;96621.13;;;6.03;86.91
31357;BME280;60001;48.404;11.738;2024-03-07T00:54:32;96626.19;;;5.98;86.79
31357;BME280;60001;48.404;11.738;2024-03-07T00:56:03;96621.72;;;6.05;86.46
31357;BME280;60001;48.404;11.738;2024-03-07T00:57:35;96623.16;;;6.01;86.31
31357;BME280;60001;48.404;11.738;2024-03-07T00:59:06;96621.19;;;5.96;86.69
31357;BME280;60001;48.404;11.738;2024-03-07T01:00:38;96611.44;;;5.78;86.71
31357;BME280;60001;48.404;11.738;2024-03-07T01:02:09;96621.19;;;5.90;86.97
31357;BME280;60001;48.404;11.738;2024-03-07T01:03:41;96615.97;;;5.90;87.31
31357;BME280;60001;48.404;11.738;2024-03-07T01:05:12;96620.97;;;5.98;87.09
31357;BME280;60001;48.404;11.738;2024-03-07T01:06:44;96619.31;;;6.03;87.28
31357;BME280;60001;48.404;11.738;2024-03-07T01:08:15;96620.53;;;6.01;87.55
31357;BME280;60001;48.404;11.738;2024-03-07T01:09:48;96617.47;;;6.04;87.07
31357;BME280;60001;48.404;11.738;2024-03-07T01:11:19;96615.31;;;6.01;87.25
31357;BME280;60001;48.404;11.738;2024-03-07T01:12:51;96621.97;;;5.97;87.33
31357;BME280;60001;48.404;11.738;2024-03-07T01:14:24;96623.22;;;5.94;87.13
31357;BME280;60001;48.404;11.738;2024-03-07T01:15:54;96614.13;;;5.90;87.47
31357;BME280;60001;48.404;11.738;2024-03-07T01:17:26;96608.31;;;5.88;87.26
31357;BME280;60001;48.404;11.738;2024-03-07T01:18:57;96610.41;;;6.04;86.56
31357;BME280;60001;48.404;11.738;2024-03-07T01:20:29;96609.09;;;5.95;87.00
31357;BME280;60001;48.404;11.738;2024-03-07T01:22:03;96603.63;;;5.97;87.09
31357;BME280;60001;48.404;11.738;2024-03-07T01:23:34;96614.13;;;5.97;87.84
31357;BME280;60001;48.404;11.738;2024-03-07T01:25:08;96597.81;;;5.95;87.55
31357;BME280;60001;48.404;11.738;2024-03-07T01:26:38;96603.50;;;5.92;87.55
31357;BME280;60001;48.404;11.738;2024-03-07T01:28:10;96612.97;;;5.86;88.01
31357;BME280;60001;48.404;11.738;2024-03-07T01:29:43;96603.19;;;5.75;88.52
31357;BME280;60001;48.404;11.738;2024-03-07T01:31:15;96597.94;;;5.75;88.17
31357;BME280;60001;48.404;11.738;2024-03-07T01:32:45;96605.91;;;5.87;88.22
31357;BME280;60001;48.404;11.738;2024-03-07T01:34:17;96607.22;;;5.77;88.50
31357;BME280;60001;48.404;11.738;2024-03-07T01:35:48;96604.38;;;5.79;88.87
31357;BME280;60001;48.404;11.738;2024-03-07T01:37:20;96601.34;;;5.75;88.97
31357;BME280;60001;48.404;11.738;2024-03-07T01:38:51;96604.72;;;5.83;88.92
31357;BME280;60001;48.404;11.738;2024-03-07T01:40:24;96592.81;;;5.87;88.22
31357;BME280;60001;48.404;11.738;2024-03-07T01:41:55;96592.00;;;5.86;88.29
31357;BME280;60001;48.404;11.738;2024-03-07T01:43:27;96593.00;;;5.92;88.23
31357;BME280;60001;48.404;11.738;2024-03-07T01:44:58;96594.38;;;5.94;87.68
31357;BME280;60001;48.404;11.738;2024-03-07T01:46:30;96587.34;;;5.88;88.05
31357;BME280;60001;48.404;11.738;2024-03-07T01:48:03;96583.94;;;5.88;88.12
31357;BME280;60001;48.404;11.738;2024-03-07T01:49:34;96586.59;;;5.81;87.97
31357;BME280;60001;48.404;11.738;2024-03-07T01:51:06;96578.38;;;5.77;88.44
31357;BME280;60001;48.404;11.738;2024-03-07T01:52:40;96575.00;;;5.70;88.44
31357;BME280;60001;48.404;11.738;2024-03-07T01:54:13;96574.75;;;5.78;88.90
31357;BME280;60001;48.404;11.738;2024-03-07T01:55:45;96572.69;;;5.81;88.58
31357;BME280;60001;48.404;11.738;2024-03-07T01:57:18;96573.28;;;5.83;88.50
31357;BME280;60001;48.404;11.738;2024-03-07T01:58:50;96568.84;;;5.83;88.64
31357;BME280;60001;48.404;11.738;2024-03-07T02:00:23;96566.88;;;5.78;88.71
31357;BME280;60001;48.404;11.738;2024-03-07T02:01:54;96560.94;;;5.65;88.75
31357;BME280;60001;48.404;11.738;2024-03-07T02:03:26;96573.78;;;5.73;88.99
31357;BME280;60001;48.404;11.738;2024-03-07T02:04:57;96565.91;;;5.73;88.53
31357;BME280;60001;48.404;11.738;2024-03-07T02:06:29;96564.94;;;5.67;88.52
31357;BME280;60001;48.404;11.738;2024-03-07T02:08:00;96570.94;;;5.74;89.03
31357;BME280;60001;48.404;11.738;2024-03-07T02:09:33;96569.78;;;5.70;88.85
31357;BME280;60001;48.404;11.738;2024-03-07T02:11:05;96571.38;;;5.71;88.64
31357;BME280;60001;48.404;11.738;2024-03-07T02:12:37;96577.03;;;5.68;88.35
31357;BME280;60001;48.404;11.738;2024-03-07T02:14:08;96576.06;;;5.63;88.44
31357;BME280;60001;48.404;11.738;2024-03-07T02:15:40;96569.44;;;5.60;88.81
31357;BME280;60001;48.404;11.738;2024-03-07T02:17:13;96566.97;;;5.65;88.41
31357;BME280;60001;48.404;11.738;2024-03-07T02:18:45;96570.81;;;5.63;88.28
31357;BME280;60001;48.404;11.738;2024-03-07T02:20:16;96577.25;;;5.67;88.04
31357;BME280;60001;48.404;11.738;2024-03-07T02:21:49;96569.78;;;5.70;87.13
31357;BME280;60001;48.404;11.738;2024-03-07T02:23:20;96567.56;;;5.67;87.18
31357;BME280;60001;48.404;11.738;2024-03-07T02:24:52;96572.00;;;5.67;87.10
31357;BME280;60001;48.404;11.738;2024-03-07T02:26:23;96540.41;;;5.37;87.09
31357;BME280;60001;48.404;11.738;2024-03-07T02:27:55;96557.53;;;5.64;87.09
31357;BME280;60001;48.404;11.738;2024-03-07T02:29:25;96560.34;;;5.63;86.76
31357;BME280;60001;48.404;11.738;2024-03-07T02:30:57;96555.72;;;5.65;86.43
31357;BME280;60001;48.404;11.738;2024-03-07T02:32:28;96554.28;;;5.62;86.61
31357;BME280;60001;48.404;11.738;2024-03-07T02:34:00;96554.91;;;5.64;85.82
31357;BME280;60001;48.404;11.738;2024-03-07T02:35:32;96551.38;;;5.52;86.18
31357;BME280;60001;48.404;11.738;2024-03-07T02:37:06;96540.31;;;5.50;85.79
31357;BME280;60001;48.404;11.738;2024-03-07T02:38:39;96553.53;;;5.55;85.91
31357;BME280;60001;48.404;11.738;2024-03-07T02:40:12;96555.38;;;5.55;85.62
31357;BME280;60001;48.404;11.738;2024-03-07T02:41:43;96556.16;;;5.55;85.15
31357;BME280;60001;48.404;11.738;2024-03-07T02:43:14;96551.28;;;5.65;85.03
31357;BME280;60001;48.404;11.738;2024-03-07T02:44:46;96547.00;;;5.71;84.41
31357;BME280;60001;48.404;11.738;2024-03-07T02:46:18;96526.56;;;5.55;84.54
31357;BME280;60001;48.404;11.738;2024-03-07T02:47:49;96552.69;;;5.61;84.36
31357;BME280;60001;48.404;11.738;2024-03-07T02:49:22;96558.06;;;5.41;85.17
31357;BME280;60001;48.404;11.738;2024-03-07T02:50:52;96550.53;;;5.58;84.90
31357;BME280;60001;48.404;11.738;2024-03-07T02:52:27;96543.34;;;5.47;83.97
31357;BME280;60001;48.404;11.738;2024-03-07T02:53:57;96528.28;;;5.42;84.12
31357;BME280;60001;48.404;11.738;2024-03-07T02:55:29;96544.00;;;5.42;83.40
31357;BME280;60001;48.404;11.738;2024-03-07T02:57:00;96550.03;;;5.43;83.58
31357;BME280;60001;48.404;11.738;2024-03-07T02:58:32;96548.44;;;5.35;84.01
31357;BME280;60001;48.404;11.738;2024-03-07T03:00:04;96541.06;;;5.26;83.61
31357;BME280;60001;48.404;11.738;2024-03-07T03:01:44;96544.78;;;5.43;83.18
31357;BME280;60001;48.404;11.738;2024-03-07T03:03:15;96542.59;;;5.40;83.41
31357;BME280;60001;48.404;11.738;2024-03-07T03:04:47;96538.59;;;5.37;83.19
31357;BME280;60001;48.404;11.738;2024-03-07T03:06:18;96546.91;;;5.28;83.05
31357;BME280;60001;48.404;11.738;2024-03-07T03:07:52;96545.72;;;5.23;82.49
31357;BME280;60001;48.404;11.738;2024-03-07T03:09:26;96544.13;;;5.22;82.15
31357;BME280;60001;48.404;11.738;2024-03-07T03:10:58;96538.72;;;5.17;82.20
31357;BME280;60001;48.404;11.738;2024-03-07T03:12:29;96546.19;;;5.14;81.93
31357;BME280;60001;48.404;11.738;2024-03-07T03:14:02;96538.50;;;5.19;81.75
31357;BME280;60001;48.404;11.738;2024-03-07T03:15:34;96540.94;;;5.14;82.14
31357;BME280;60001;48.404;11.738;2024-03-07T03:17:08;96537.97;;;5.10;81.02
31357;BME280;60001;48.404;11.738;2024-03-07T03:18:39;96542.72;;;5.20;81.11
31357;BME280;60001;48.404;11.738;2024-03-07T03:20:11;96544.31;;;5.21;81.32
31357;BME280;60001;48.404;11.738;2024-03-07T03:21:54;96544.44;;;5.08;81.47
31357;BME280;60001;48.404;11.738;2024-03-07T03:23:28;96548.59;;;5.15;81.27
31357;BME280;60001;48.404;11.738;2024-03-07T03:24:59;96535.41;;;4.97;81.76
31357;BME280;60001;48.404;11.738;2024-03-07T03:26:32;96546.06;;;5.02;81.88
31357;BME280;60001;48.404;11.738;2024-03-07T03:28:03;96546.91;;;4.96;81.84
31357;BME280;60001;48.404;11.738;2024-03-07T03:29:35;96546.31;;;4.94;81.83
31357;BME280;60001;48.404;11.738;2024-03-07T03:31:07;96551.38;;;4.89;82.19
31357;BME280;60001;48.404;11.738;2024-03-07T03:32:39;96549.69;;;5.01;81.19
31357;BME280;60001;48.404;11.738;2024-03-07T03:34:10;96549.09;;;4.99;80.91
31357;BME280;60001;48.404;11.738;2024-03-07T03:35:43;96540.44;;;4.99;80.61
31357;BME280;60001;48.404;11.738;2024-03-07T03:37:15;96546.25;;;5.01;80.46
31357;BME280;60001;48.404;11.738;2024-03-07T03:38:49;96539.63;;;4.98;80.94
31357;BME280;60001;48.404;11.738;2024-03-07T03:40:19;96547.72;;;4.90;81.13
31357;BME280;60001;48.404;11.738;2024-03-07T03:41:51;96544.91;;;4.91;80.19
31357;BME280;60001;48.404;11.738;2024-03-07T03:43:22;96544.91;;;4.91;80.78
31357;BME280;60001;48.404;11.738;2024-03-07T03:44:54;96542.94;;;4.87;80.92
31357;BME280;60001;48.404;11.738;2024-03-07T03:46:24;96544.72;;;4.86;79.83
31357;BME280;60001;48.404;11.738;2024-03-07T03:47:56;96542.72;;;4.88;79.70
31357;BME280;60001;48.404;11.738;2024-03-07T03:49:27;96542.50;;;4.90;80.01
31357;BME280;60001;48.404;11.738;2024-03-07T03:50:59;96532.63;;;4.92;80.06
31357;BME280;60001;48.404;11.738;2024-03-07T03:52:30;96529.63;;;4.88;79.59
31357;BME280;60001;48.404;11.738;2024-03-07T03:54:03;96543.94;;;4.79;79.05
31357;BME280;60001;48.404;11.738;2024-03-07T03:55:36;96537.16;;;4.72;78.99
31357;BME280;60001;48.404;11.738;2024-03-07T03:57:07;96538.34;;;4.76;77.08
31357;BME280;60001;48.404;11.738;2024-03-07T03:58:39;96532.94;;;4.71;78.07
31357;BME280;60001;48.404;11.738;2024-03-07T04:00:11;96545.41;;;4.68;78.03
31357;BME280;60001;48.404;11.738;2024-03-07T04:01:44;96515.69;;;4.56;78.17
31357;BME280;60001;48.404;11.738;2024-03-07T04:03:15;96537.94;;;4.72;77.94
31357;BME280;60001;48.404;11.738;2024-03-07T04:04:47;96542.25;;;4.60;78.31
31357;BME280;60001;48.404;11.738;2024-03-07T04:06:19;96540.84;;;4.57;77.16
31357;BME280;60001;48.404;11.738;2024-03-07T04:07:51;96534.19;;;4.61;77.31
31357;BME280;60001;48.404;11.738;2024-03-07T04:09:24;96534.41;;;4.60;77.31
31357;BME280;60001;48.404;11.738;2024-03-07T04:10:55;96531.34;;;4.70;77.08
31357;BME280;60001;48.404;11.738;2024-03-07T04:12:27;96532.75;;;4.65;76.05
31357;BME280;60001;48.404;11.738;2024-03-07T04:13:58;96529.50;;;4.70;76.32
31357;BME280;60001;48.404;11.738;2024-03-07T04:15:29;96521.91;;;4.62;76.25
31357;BME280;60001;48.404;11.738;2024-03-07T04:17:02;96532.13;;;4.70;76.59
31357;BME280;60001;48.404;11.738;2024-03-07T04:18:34;96541.97;;;4.75;76.61
31357;BME280;60001;48.404;11.738;2024-03-07T04:20:07;96528.53;;;4.64;76.40
31357;BME280;60001;48.404;11.738;2024-03-07T04:21:38;96533.34;;;4.67;76.63
31357;BME280;60001;48.404;11.738;2024-03-07T04:23:10;96535.78;;;4.62;76.52
31357;BME280;60001;48.404;11.738;2024-03-07T04:24:42;96538.41;;;4.62;76.00
31357;BME280;60001;48.404;11.738;2024-03-07T04:26:14;96540.00;;;4.63;76.50
31357;BME280;60001;48.404;11.738;2024-03-07T04:27:45;96547.84;;;4.63;76.74
31357;BME280;60001;48.404;11.738;2024-03-07T04:29:20;96539.22;;;4.56;77.70
31357;BME280;60001;48.404;11.738;2024-03-07T04:30:50;96550.50;;;4.57;77.37
31357;BME280;60001;48.404;11.738;2024-03-07T04:32:23;96544.47;;;4.56;76.92
31357;BME280;60001;48.404;11.738;2024-03-07T04:33:54;96547.66;;;4.58;76.76
31357;BME280;60001;48.404;11.738;2024-03-07T04:35:26;96543.47;;;4.51;76.61
31357;BME280;60001;48.404;11.738;2024-03-07T04:36:58;96542.44;;;4.58;76.00
31357;BME280;60001;48.404;11.738;2024-03-07T04:38:31;96544.84;;;4.66;76.65
31357;BME280;60001;48.404;11.738;2024-03-07T04:40:05;96546.88;;;4.58;76.40
31357;BME280;60001;48.404;11.738;2024-03-07T04:41:45;96548.88;;;4.62;76.14
31357;BME280;60001;48.404;11.738;2024-03-07T04:43:18;96539.59;;;4.66;76.38
31357;BME280;60001;48.404;11.738;2024-03-07T04:44:49;96539.81;;;4.58;76.21
31357;BME280;60001;48.404;11.738;2024-03-07T04:46:20;96551.91;;;4.59;76.46
31357;BME280;60001;48.404;11.738;2024-03-07T04:47:52;96538.47;;;4.49;76.86
31357;BME280;60001;48.404;11.738;2024-03-07T04:49:24;96548.94;;;4.43;76.88
31357;BME280;60001;48.404;11.738;2024-03-07T04:50:55;96544.28;;;4.51;77.28
31357;BME280;60001;48.404;11.738;2024-03-07T04:52:28;96550.13;;;4.47;77.07
31357;BME280;60001;48.404;11.738;2024-03-07T04:53:59;96554.97;;;4.43;77.08
31357;BME280;60001;48.404;11.738;2024-03-07T04:55:32;96525.88;;;4.20;77.36
31357;BME280;60001;48.404;11.738;2024-03-07T04:57:04;96554.97;;;4.36;77.55
31357;BME280;60001;48.404;11.738;2024-03-07T04:58:37;96557.56;;;4.43;77.69
31357;BME280;60001;48.404;11.738;2024-03-07T05:00:09;96520.06;;;4.24;77.18
31357;BME280;60001;48.404;11.738;2024-03-07T05:01:44;96553.94;;;4.51;77.42
31357;BME280;60001;48.404;11.738;2024-03-07T05:03:15;96557.78;;;4.42;77.48
31357;BME280;60001;48.404;11.738;2024-03-07T05:04:47;96555.97;;;4.49;77.25
31357;BME280;60001;48.404;11.738;2024-03-07T05:06:22;96554.56;;;4.46;77.76
31357;BME280;60001;48.404;11.738;2024-03-07T05:07:54;96548.31;;;4.47;77.28
31357;BME280;60001;48.404;11.738;2024-03-07T05:09:26;96554.16;;;4.49;77.69
31357;BME280;60001;48.404;11.738;2024-03-07T05:11:00;96539.94;;;4.32;77.52
31357;BME280;60001;48.404;11.738;2024-03-07T05:12:33;96551.97;;;4.39;77.07
31357;BME280;60001;48.404;11.738;2024-03-07T05:14:03;96552.38;;;4.36;77.34
31357;BME280;60001;48.404;11.738;2024-03-07T05:15:35;96547.78;;;4.32;77.71
31357;BME280;60001;48.404;11.738;2024-03-07T05:17:06;96545.75;;;4.34;77.53
31357;BME280;60001;48.404;11.738;2024-03-07T05:18:38;96559.59;;;4.41;77.81
31357;BME280;60001;48.404;11.738;2024-03-07T05:20:10;96557.59;;;4.36;77.88
31357;BME280;60001;48.404;11.738;2024-03-07T05:21:42;96547.94;;;4.37;77.75
31357;BME280;60001;48.404;11.738;2024-03-07T05:23:13;96549.94;;;4.42;77.10
31357;BME280;60001;48.404;11.738;2024-03-07T05:24:45;96558.41;;;4.37;77.99
31357;BME280;60001;48.404;11.738;2024-03-07T05:26:17;96554.97;;;4.36;78.58
31357;BME280;60001;48.404;11.738;2024-03-07T05:27:50;96551.97;;;4.39;77.59
31357;BME280;60001;48.404;11.738;2024-03-07T05:29:22;96557.38;;;4.38;76.83
31357;BME280;60001;48.404;11.738;2024-03-07T05:30:52;96562.63;;;4.38;76.35
31357;BME280;60001;48.404;11.738;2024-03-07T05:32:25;96553.94;;;4.44;76.67
31357;BME280;60001;48.404;11.738;2024-03-07T05:33:56;96561.00;;;4.44;77.25
31357;BME280;60001;48.404;11.738;2024-03-07T05:35:28;96560.22;;;4.36;77.53
31357;BME280;60001;48.404;11.738;2024-03-07T05:37:00;96564.41;;;4.44;77.26
31357;BME280;60001;48.404;11.738;2024-03-07T05:38:31;96555.97;;;4.42;76.15
31357;BME280;60001;48.404;11.738;2024-03-07T05:40:03;96557.00;;;4.41;75.93
31357;BME280;60001;48.404;11.738;2024-03-07T05:41:39;96561.63;;;4.46;76.54
31357;BME280;60001;48.404;11.738;2024-03-07T05:43:11;96555.59;;;4.38;76.60
31357;BME280;60001;48.404;11.738;2024-03-07T05:44:44;96557.38;;;4.45;77.01
31357;BME280;60001;48.404;11.738;2024-03-07T05:46:16;96565.63;;;4.42;76.09
31357;BME280;60001;48.404;11.738;2024-03-07T05:47:47;96563.22;;;4.40;76.03
31357;BME280;60001;48.404;11.738;2024-03-07T05:49:19;96567.25;;;4.36;76.33
31357;BME280;60001;48.404;11.738;2024-03-07T05:50:51;96563.22;;;4.40;75.82
31357;BME280;60001;48.404;11.738;2024-03-07T05:52:23;96557.78;;;4.42;75.99
31357;BME280;60001;48.404;11.738;2024-03-07T05:53:54;96556.41;;;4.39;76.48
31357;BME280;60001;48.404;11.738;2024-03-07T05:55:25;96561.41;;;4.40;76.57
31357;BME280;60001;48.404;11.738;2024-03-07T05:56:59;96554.38;;;4.41;75.82
31357;BME280;60001;48.404;11.738;2024-03-07T05:58:30;96570.25;;;4.46;75.49
31357;BME280;60001;48.404;11.738;2024-03-07T06:00:02;96563.44;;;4.38;75.96
31357;BME280;60001;48.404;11.738;2024-03-07T06:01:40;96563.03;;;4.35;76.03
31357;BME280;60001;48.404;11.738;2024-03-07T06:03:11;96566.25;;;4.37;76.61
31357;BME280;60001;48.404;11.738;2024-03-07T06:04:44;96564.03;;;4.40;76.47
31357;BME280;60001;48.404;11.738;2024-03-07T06:06:15;96567.44;;;4.41;75.68
31357;BME280;60001;48.404;11.738;2024-03-07T06:07:47;96559.19;;;4.44;76.63
31357;BME280;60001;48.404;11.738;2024-03-07T06:09:18;96562.44;;;4.39;76.73
31357;BME280;60001;48.404;11.738;2024-03-07T06:10:52;96558.78;;;4.47;76.46
31357;BME280;60001;48.404;11.738;2024-03-07T06:12:24;96565.06;;;4.39;76.26
31357;BME280;60001;48.404;11.738;2024-03-07T06:13:56;96563.44;;;4.38;76.12
31357;BME280;60001;48.404;11.738;2024-03-07T06:15:28;96559.19;;;4.37;76.23
31357;BME280;60001;48.404;11.738;2024-03-07T06:17:00;96556.41;;;4.32;76.71
31357;BME280;60001;48.404;11.738;2024-03-07T06:18:32;96556.59;;;4.31;76.31
31357;BME280;60001;48.404;11.738;2024-03-07T06:20:04;96554.84;;;4.18;77.08
31357;BME280;60001;48.404;11.738;2024-03-07T06:21:40;96561.47;;;4.21;76.91
31357;BME280;60001;48.404;11.738;2024-03-07T06:23:11;96560.91;;;4.12;77.02
31357;BME280;60001;48.404;11.738;2024-03-07T06:24:43;96558.28;;;4.05;77.79
31357;BME280;60001;48.404;11.738;2024-03-07T06:26:14;96564.28;;;4.26;77.18
31357;BME280;60001;48.404;11.738;2024-03-07T06:27:58;96560.66;;;4.20;76.84
31357;BME280;60001;48.404;11.738;2024-03-07T06:29:29;96557.28;;;4.13;77.07
31357;BME280;60001;48.404;11.738;2024-03-07T06:31:02;96552.22;;;4.25;76.71
31357;BME280;60001;48.404;11.738;2024-03-07T06:32:38;96557.44;;;4.25;76.45
31357;BME280;60001;48.404;11.738;2024-03-07T06:34:09;96552.03;;;4.20;76.81
31357;BME280;60001;48.404;11.738;2024-03-07T06:35:41;96550.19;;;4.27;81.22
31357;BME280;60001;48.404;11.738;2024-03-07T06:37:12;96555.75;;;4.44;81.96
31357;BME280;60001;48.404;11.738;2024-03-07T06:38:44;96551.47;;;4.62;84.10
31357;BME280;60001;48.404;11.738;2024-03-07T06:40:15;96558.63;;;4.87;87.04
31357;BME280;60001;48.404;11.738;2024-03-07T06:41:51;96554.91;;;5.08;85.94
31357;BME280;60001;48.404;11.738;2024-03-07T06:43:25;96557.50;;;5.08;77.97
31357;BME280;60001;48.404;11.738;2024-03-07T06:44:56;96554.50;;;5.04;78.79
31357;BME280;60001;48.404;11.738;2024-03-07T06:46:28;96552.28;;;5.08;79.59
31357;BME280;60001;48.404;11.738;2024-03-07T06:48:02;96555.22;;;5.18;81.89
31357;BME280;60001;48.404;11.738;2024-03-07T06:49:32;96564.63;;;5.26;81.63
31357;BME280;60001;48.404;11.738;2024-03-07T06:51:05;96554.75;;;5.28;79.72
31357;BME280;60001;48.404;11.738;2024-03-07T06:52:37;96561.19;;;5.32;75.41
31357;BME280;60001;48.404;11.738;2024-03-07T06:54:07;96557.19;;;5.29;78.01
31357;BME280;60001;48.404;11.738;2024-03-07T06:55:39;96560.97;;;5.33;78.12
31357;BME280;60001;48.404;11.738;2024-03-07T06:57:10;96558.81;;;5.23;75.58
31357;BME280;60001;48.404;11.738;2024-03-07T06:58:44;96555.94;;;5.32;77.27
31357;BME280;60001;48.404;11.738;2024-03-07T07:00:16;96558.34;;;5.33;76.40
31357;BME280;60001;48.404;11.738;2024-03-07T07:01:49;96569.47;;;5.29;76.82
31357;BME280;60001;48.404;11.738;2024-03-07T07:03:21;96559.78;;;5.29;74.49
31357;BME280;60001;48.404;11.738;2024-03-07T07:04:52;96561.34;;;5.37;74.31
31357;BME280;60001;48.404;11.738;2024-03-07T07:06:24;96570.28;;;5.29;73.62
31357;BME280;60001;48.404;11.738;2024-03-07T07:07:58;96561.19;;;5.32;73.53
31357;BME280;60001;48.404;11.738;2024-03-07T07:09:29;96566.84;;;5.29;75.17
31357;BME280;60001;48.404;11.738;2024-03-07T07:11:03;96576.31;;;5.30;77.70
31357;BME280;60001;48.404;11.738;2024-03-07T07:12:35;96569.47;;;5.29;75.80
31357;BME280;60001;48.404;11.738;2024-03-07T07:14:07;96558.25;;;5.21;74.07
31357;BME280;60001;48.404;11.738;2024-03-07T07:15:39;96559.66;;;5.17;72.86
31357;BME280;60001;48.404;11.738;2024-03-07T07:17:10;96572.22;;;5.02;72.36
31357;BME280;60001;48.404;11.738;2024-03-07T07:18:44;96569.47;;;4.90;72.23
31357;BME280;60001;48.404;11.738;2024-03-07T07:20:16;96579.16;;;4.83;72.68
31357;BME280;60001;48.404;11.738;2024-03-07T07:21:47;96570.06;;;4.92;73.23
31357;BME280;60001;48.404;11.738;2024-03-07T07:23:20;96569.16;;;4.74;73.12
31357;BME280;60001;48.404;11.738;2024-03-07T07:24:51;96572.00;;;4.59;74.19
31357;BME280;60001;48.404;11.738;2024-03-07T07:26:23;96560.75;;;4.58;73.98
31357;BME280;60001;48.404;11.738;2024-03-07T07:27:56;96564.16;;;4.59;74.44
31357;BME280;60001;48.404;11.738;2024-03-07T07:29:28;96569.19;;;4.60;74.26
31357;BME280;60001;48.404;11.738;2024-03-07T07:31:00;96573.06;;;4.45;74.60
31357;BME280;60001;48.404;11.738;2024-03-07T07:32:32;96562.22;;;4.41;75.50
31357;BME280;60001;48.404;11.738;2024-03-07T07:34:03;96564.84;;;4.41;75.29
31357;BME280;60001;48.404;11.738;2024-03-07T07:35:36;96570.25;;;4.53;75.57
31357;BME280;60001;48.404;11.738;2024-03-07T07:37:07;96570.59;;;4.63;75.40
31357;BME280;60001;48.404;11.738;2024-03-07T07:38:39;96567.94;;;4.70;76.03
31357;BME280;60001;48.404;11.738;2024-03-07T07:40:13;96575.00;;;4.69;76.01
31357;BME280;60001;48.404;11.738;2024-03-07T07:41:48;96558.09;;;4.65;75.96
31357;BME280;60001;48.404;11.738;2024-03-07T07:43:19;96567.09;;;4.82;75.44
31357;BME280;60001;48.404;11.738;2024-03-07T07:44:52;96575.13;;;4.87;74.62
31357;BME280;60001;48.404;11.738;2024-03-07T07:46:23;96571.78;;;4.74;74.08
31357;BME280;60001;48.404;11.738;2024-03-07T07:47:55;96568.13;;;4.75;73.48
31357;BME280;60001;48.404;11.738;2024-03-07T07:49:27;96570.97;;;4.73;74.55
31357;BME280;60001;48.404;11.738;2024-03-07T07:50:59;96571.38;;;4.70;74.72
31357;BME280;60001;48.404;11.738;2024-03-07T07:52:30;96572.81;;;4.66;74.93
31357;BME280;60001;48.404;11.738;2024-03-07T07:54:04;96576.56;;;4.77;75.31
31357;BME280;60001;48.404;11.738;2024-03-07T07:55:36;96564.31;;;4.71;75.52
31357;BME280;60001;48.404;11.738;2024-03-07T07:57:07;96516.53;;;4.44;75.73
31357;BME280;60001;48.404;11.738;2024-03-07T07:58:39;96577.94;;;4.86;75.34
31357;BME280;60001;48.404;11.738;2024-03-07T08:00:15;96570.28;;;4.84;73.89
31357;BME280;60001;48.404;11.738;2024-03-07T08:01:51;96561.16;;;5.00;73.53
31357;BME280;60001;48.404;11.738;2024-03-07T08:03:26;96572.41;;;5.01;74.90
31357;BME280;60001;48.404;11.738;2024-03-07T08:04:56;96566.78;;;5.04;75.49
31357;BME280;60001;48.404;11.738;2024-03-07T08:06:28;96556.31;;;5.04;74.81
31357;BME280;60001;48.404;11.738;2024-03-07T08:08:02;96566.94;;;5.15;74.79